createdAt,value
2022-10-23T00:01:46.638Z,18.02
2022-10-23T00:04:20.858Z,17.99
2022-10-23T00:06:50.056Z,17.95
2022-10-23T00:09:22.293Z,18.09
2022-10-23T00:11:52.410Z,18.07
2022-10-23T00:14:23.848Z,18.00
2022-10-23T00:16:52.336Z,17.91
2022-10-23T00:19:20.780Z,18.00
2022-10-23T00:21:49.303Z,18.08
2022-10-23T00:24:17.840Z,18.15
2022-10-23T00:26:46.188Z,17.91
2022-10-23T00:29:14.593Z,17.94
2022-10-23T00:31:42.996Z,17.97
2022-10-23T00:34:11.485Z,17.85
2022-10-23T00:36:39.875Z,17.97
2022-10-23T00:39:08.241Z,17.91
2022-10-23T00:41:36.702Z,17.90
2022-10-23T00:44:30.133Z,17.93
2022-10-23T00:47:00.128Z,17.82
2022-10-23T00:49:28.800Z,17.85
2022-10-23T00:52:01.190Z,17.83
2022-10-23T00:54:33.528Z,17.78
2022-10-23T00:57:04.064Z,17.80
2022-10-23T00:59:33.533Z,17.86
2022-10-23T01:02:02.317Z,17.86
2022-10-23T01:04:32.015Z,17.83
2022-10-23T01:07:19.955Z,17.97
2022-10-23T01:10:02.043Z,17.96
2022-10-23T01:12:45.773Z,18.03
2022-10-23T01:15:22.793Z,18.01
2022-10-23T01:17:54.179Z,17.81
2022-10-23T01:20:39.609Z,17.71
2022-10-23T01:23:38.538Z,17.65
2022-10-23T01:26:25.164Z,17.74
2022-10-23T01:29:01.492Z,17.67
2022-10-23T01:31:42.344Z,17.67
2022-10-23T01:34:23.585Z,17.71
2022-10-23T01:36:53.799Z,17.61
2022-10-23T01:39:31.087Z,17.57
2022-10-23T01:42:16.423Z,17.64
2022-10-23T01:44:50.719Z,17.61
2022-10-23T01:47:23.894Z,17.54
2022-10-23T01:49:54.462Z,17.60
2022-10-23T01:52:23.313Z,17.60
2022-10-23T01:54:55.007Z,17.65
2022-10-23T01:57:26.865Z,17.59
2022-10-23T02:00:04.105Z,17.58
2022-10-23T02:02:33.858Z,17.51
2022-10-23T02:05:07.516Z,17.56
2022-10-23T02:07:36.311Z,17.62
2022-10-23T02:10:06.422Z,17.58
2022-10-23T02:12:56.016Z,17.53
2022-10-23T02:15:40.543Z,17.37
2022-10-23T02:18:09.667Z,17.35
2022-10-23T02:20:45.818Z,17.48
2022-10-23T02:23:25.365Z,17.52
2022-10-23T02:26:04.662Z,17.46
2022-10-23T02:28:40.418Z,17.54
2022-10-23T02:31:13.157Z,17.59
2022-10-23T02:33:43.939Z,17.54
2022-10-23T02:36:12.712Z,17.54
2022-10-23T02:38:43.919Z,17.63
2022-10-23T02:41:18.411Z,17.66
2022-10-23T02:43:56.917Z,17.73
2022-10-23T02:47:07.807Z,17.70
2022-10-23T02:49:47.955Z,17.59
2022-10-23T02:52:23.356Z,17.61
2022-10-23T02:55:07.022Z,17.62
2022-10-23T02:57:44.755Z,17.53
2022-10-23T03:00:16.805Z,17.55
2022-10-23T03:03:02.235Z,17.58
2022-10-23T03:05:34.189Z,17.50
2022-10-23T03:08:04.897Z,17.48
2022-10-23T03:10:33.323Z,17.53
2022-10-23T03:13:01.759Z,17.53
2022-10-23T03:15:30.162Z,17.44
2022-10-23T03:17:58.533Z,17.46
2022-10-23T03:20:26.998Z,17.59
2022-10-23T03:22:55.373Z,17.55
2022-10-23T03:25:23.778Z,17.56
2022-10-23T03:27:52.138Z,17.58
2022-10-23T03:30:20.554Z,17.68
2022-10-23T03:32:48.884Z,17.71
2022-10-23T03:35:19.806Z,17.64
2022-10-23T03:37:48.223Z,17.83
2022-10-23T03:40:16.618Z,17.86
2022-10-23T03:42:44.974Z,17.71
2022-10-23T03:45:13.353Z,17.73
2022-10-23T03:47:41.999Z,17.82
2022-10-23T03:50:11.614Z,17.81
2022-10-23T03:52:40.959Z,17.71
2022-10-23T03:55:09.865Z,17.78
2022-10-23T03:57:38.561Z,17.74
2022-10-23T04:00:08.076Z,17.67
2022-10-23T04:02:36.430Z,17.65
2022-10-23T04:05:05.592Z,17.71
2022-10-23T04:07:33.999Z,17.63
2022-10-23T04:10:02.605Z,17.73
2022-10-23T04:12:31.113Z,17.76
2022-10-23T04:14:59.464Z,17.81
2022-10-23T04:20:01.047Z,17.75
2022-10-23T04:22:29.376Z,17.70
2022-10-23T04:24:57.699Z,17.78
2022-10-23T04:27:26.110Z,17.68
2022-10-23T04:29:56.867Z,17.62
2022-10-23T04:32:27.416Z,17.58
2022-10-23T04:34:55.728Z,17.65
2022-10-23T04:37:25.257Z,17.65
2022-10-23T04:39:53.815Z,17.62
2022-10-23T04:42:22.240Z,17.66
2022-10-23T04:44:50.621Z,17.65
2022-10-23T04:47:19.028Z,17.61
2022-10-23T04:49:47.382Z,17.60
2022-10-23T04:52:16.048Z,17.70
2022-10-23T04:54:44.434Z,17.74
2022-10-23T04:57:12.777Z,17.64
2022-10-23T04:59:41.139Z,17.60
2022-10-23T05:02:09.475Z,17.59
2022-10-23T05:04:37.963Z,17.52
2022-10-23T05:07:06.304Z,17.52
2022-10-23T05:09:34.749Z,17.54
2022-10-23T05:12:03.123Z,17.52
2022-10-23T05:14:31.453Z,17.57
2022-10-23T05:17:07.484Z,17.59
2022-10-23T05:19:42.168Z,17.64
2022-10-23T05:22:12.179Z,17.60
2022-10-23T05:24:40.536Z,17.54
2022-10-23T05:27:08.835Z,17.53
2022-10-23T05:29:37.173Z,17.60
2022-10-23T05:32:07.255Z,17.58
2022-10-23T05:34:38.289Z,17.56
2022-10-23T05:37:09.576Z,17.56
2022-10-23T05:39:38.232Z,17.55
2022-10-23T05:42:06.908Z,17.53
2022-10-23T05:44:35.437Z,17.60
2022-10-23T05:47:03.902Z,17.51
2022-10-23T05:49:32.252Z,17.51
2022-10-23T05:52:00.605Z,17.49
2022-10-23T05:54:28.952Z,17.53
2022-10-23T05:56:57.456Z,17.52
2022-10-23T05:59:25.837Z,17.54
2022-10-23T06:01:54.246Z,17.52
2022-10-23T06:04:22.651Z,17.61
2022-10-23T06:06:51.009Z,17.57
2022-10-23T06:09:19.477Z,17.64
2022-10-23T06:11:47.851Z,17.68
2022-10-23T06:14:16.219Z,17.68
2022-10-23T06:16:44.995Z,17.58
2022-10-23T06:19:13.334Z,17.63
2022-10-23T06:21:41.661Z,17.61
2022-10-23T06:24:10.893Z,17.56
2022-10-23T06:26:40.196Z,17.61
2022-10-23T06:29:08.586Z,17.68
2022-10-23T06:31:38.033Z,17.68
2022-10-23T06:34:06.527Z,17.68
2022-10-23T06:36:35.578Z,17.67
2022-10-23T06:39:05.106Z,17.67
2022-10-23T06:41:33.565Z,17.75
2022-10-23T06:44:02.081Z,17.81
2022-10-23T06:46:33.032Z,17.86
2022-10-23T06:49:01.509Z,17.85
2022-10-23T06:51:29.995Z,17.87
2022-10-23T06:53:58.575Z,17.89
2022-10-23T06:56:29.135Z,17.83
2022-10-23T06:58:58.558Z,17.82
2022-10-23T07:01:27.125Z,17.79
2022-10-23T07:03:55.704Z,17.88
2022-10-23T07:06:24.056Z,18.03
2022-10-23T07:08:52.514Z,18.07
2022-10-23T07:11:21.029Z,17.99
2022-10-23T07:13:49.404Z,18.07
2022-10-23T07:16:20.945Z,18.07
2022-10-23T07:18:58.637Z,18.06
2022-10-23T07:21:32.117Z,18.10
2022-10-23T07:24:02.290Z,18.15
2022-10-23T07:26:32.792Z,18.19
2022-10-23T07:29:01.332Z,18.34
2022-10-23T07:31:29.807Z,18.31
2022-10-23T07:33:58.308Z,18.27
2022-10-23T07:36:26.652Z,18.21
2022-10-23T07:38:55.962Z,18.27
2022-10-23T07:41:25.306Z,18.39
2022-10-23T07:43:53.737Z,18.28
2022-10-23T07:46:22.157Z,18.35
2022-10-23T07:48:50.570Z,18.33
2022-10-23T07:51:18.953Z,18.29
2022-10-23T07:53:47.648Z,18.32
2022-10-23T07:56:20.921Z,18.42
2022-10-23T07:58:50.732Z,18.46
2022-10-23T08:01:23.814Z,18.49
2022-10-23T08:03:52.332Z,18.51
2022-10-23T08:06:20.759Z,18.46
2022-10-23T08:08:50.342Z,18.52
2022-10-23T08:11:25.780Z,18.56
2022-10-23T08:13:55.857Z,18.57
2022-10-23T08:16:24.999Z,18.54
2022-10-23T08:18:53.430Z,18.56
2022-10-23T08:21:21.949Z,18.59
2022-10-23T08:23:53.390Z,18.73
2022-10-23T08:26:22.079Z,18.69
2022-10-23T08:28:51.409Z,18.72
2022-10-23T08:31:21.176Z,18.74
2022-10-23T08:36:21.349Z,18.86
2022-10-23T08:38:53.538Z,18.90
2022-10-23T08:41:35.060Z,18.93
2022-10-23T08:44:22.931Z,18.89
2022-10-23T08:47:08.221Z,18.99
2022-10-23T08:49:43.200Z,18.86
2022-10-23T08:52:16.652Z,18.90
2022-10-23T08:55:22.569Z,19.00
2022-10-23T08:58:40.632Z,18.96
2022-10-23T09:01:32.547Z,18.94
2022-10-23T09:04:02.337Z,19.00
2022-10-23T09:06:35.569Z,19.07
2022-10-23T09:09:41.449Z,19.21
2022-10-23T09:12:17.523Z,19.17
2022-10-23T09:15:16.115Z,19.25
2022-10-23T09:17:45.457Z,19.21
2022-10-23T09:20:31.429Z,19.36
2022-10-23T09:23:23.707Z,19.38
2022-10-23T09:25:56.687Z,19.26
2022-10-23T09:28:30.425Z,19.25
2022-10-23T09:31:10.656Z,19.24
2022-10-23T09:33:39.880Z,19.28
2022-10-23T09:36:20.792Z,19.49
2022-10-23T09:38:51.999Z,19.50
2022-10-23T09:41:28.516Z,19.66
2022-10-23T09:44:20.361Z,19.67
2022-10-23T09:46:54.364Z,19.64
2022-10-23T09:49:23.994Z,19.62
2022-10-23T09:52:04.471Z,19.74
2022-10-23T09:54:39.389Z,19.71
2022-10-23T09:57:29.721Z,19.80
2022-10-23T10:00:21.064Z,19.83
2022-10-23T10:03:02.697Z,19.92
2022-10-23T10:05:34.300Z,19.89
2022-10-23T10:08:20.752Z,19.95
2022-10-23T10:10:55.736Z,19.84
2022-10-23T10:13:33.235Z,19.82
2022-10-23T10:16:33.768Z,19.94
2022-10-23T10:19:23.977Z,19.91
2022-10-23T10:22:31.174Z,19.95
2022-10-23T10:25:09.430Z,20.00
2022-10-23T10:27:52.837Z,20.04
2022-10-23T10:30:25.232Z,20.08
2022-10-23T10:33:14.516Z,20.25
2022-10-23T10:36:01.088Z,20.25
2022-10-23T10:38:44.543Z,20.24
2022-10-23T10:41:44.978Z,20.31
2022-10-23T10:44:23.839Z,20.20
2022-10-23T10:47:05.513Z,20.28
2022-10-23T10:49:55.734Z,20.45
2022-10-23T10:53:01.680Z,20.58
2022-10-23T10:55:40.879Z,20.60
2022-10-23T10:58:16.231Z,20.74
2022-10-23T11:00:49.628Z,20.75
2022-10-23T11:03:42.406Z,20.87
2022-10-23T11:06:25.662Z,20.97
2022-10-23T11:09:09.270Z,20.94
2022-10-23T11:11:43.513Z,20.85
2022-10-23T11:14:18.738Z,21.11
2022-10-23T11:16:51.405Z,21.22
2022-10-23T11:19:36.009Z,21.20
2022-10-23T11:22:22.768Z,21.28
2022-10-23T11:25:06.496Z,21.28
2022-10-23T11:27:53.559Z,21.39
2022-10-23T11:30:46.846Z,21.48
2022-10-23T11:33:34.932Z,21.40
2022-10-23T11:36:14.138Z,21.41
2022-10-23T11:38:46.335Z,21.48
2022-10-23T11:41:27.156Z,21.58
2022-10-23T11:44:03.423Z,21.67
2022-10-23T11:46:38.920Z,21.72
2022-10-23T11:49:20.859Z,21.81
2022-10-23T11:52:00.639Z,21.78
2022-10-23T11:54:28.989Z,21.62
2022-10-23T11:57:11.692Z,21.83
2022-10-23T11:59:40.044Z,21.66
2022-10-23T12:02:28.789Z,21.79
2022-10-23T12:05:01.439Z,21.75
2022-10-23T12:07:37.195Z,21.86
2022-10-23T12:10:25.006Z,21.91
2022-10-23T12:13:03.724Z,21.98
2022-10-23T12:15:34.828Z,22.04
2022-10-23T12:18:30.690Z,22.12
2022-10-23T12:21:04.603Z,22.04
2022-10-23T12:24:08.921Z,22.10
2022-10-23T12:26:50.533Z,22.13
2022-10-23T12:29:28.004Z,22.18
2022-10-23T12:32:21.224Z,22.05
2022-10-23T12:35:08.055Z,22.22
2022-10-23T12:37:45.231Z,22.31
2022-10-23T12:40:13.708Z,22.33
2022-10-23T12:42:52.200Z,22.43
2022-10-23T12:45:24.943Z,22.47
2022-10-23T12:47:53.693Z,22.42
2022-10-23T12:50:30.145Z,22.39
2022-10-23T12:53:01.337Z,22.68
2022-10-23T12:55:57.398Z,22.59
2022-10-23T12:58:32.187Z,22.72
2022-10-23T13:01:04.641Z,22.90
2022-10-23T13:03:34.913Z,22.77
2022-10-23T13:06:03.833Z,22.84
2022-10-23T13:08:46.817Z,22.88
2022-10-23T13:11:18.735Z,22.85
2022-10-23T13:13:49.277Z,22.86
2022-10-23T13:16:20.637Z,22.74
2022-10-23T13:18:49.776Z,22.70
2022-10-23T13:21:22.497Z,22.72
2022-10-23T13:23:52.596Z,22.72
2022-10-23T13:26:34.291Z,22.84
2022-10-23T13:29:07.435Z,22.90
2022-10-23T13:31:37.328Z,22.70
2022-10-23T13:34:15.131Z,22.80
2022-10-23T13:36:54.532Z,22.77
2022-10-23T13:39:25.580Z,22.72
2022-10-23T13:41:54.270Z,22.80
2022-10-23T13:44:24.095Z,22.89
2022-10-23T13:46:52.817Z,22.84
2022-10-23T13:49:22.387Z,22.91
2022-10-23T13:51:54.224Z,22.95
2022-10-23T13:54:24.097Z,23.15
2022-10-23T13:56:54.086Z,23.00
2022-10-23T13:59:23.559Z,23.11
2022-10-23T14:01:52.467Z,23.07
2022-10-23T14:04:21.215Z,22.98
2022-10-23T14:06:49.618Z,23.02
2022-10-23T14:09:18.603Z,23.09
2022-10-23T14:11:47.896Z,23.09
2022-10-23T14:14:17.392Z,23.08
2022-10-23T14:16:45.863Z,23.05
2022-10-23T14:19:14.334Z,23.09
2022-10-23T14:21:42.768Z,23.09
2022-10-23T14:24:11.227Z,23.12
2022-10-23T14:26:39.551Z,23.06
2022-10-23T14:29:17.776Z,23.17
2022-10-23T14:31:51.329Z,23.12
2022-10-23T14:34:20.004Z,23.11
2022-10-23T14:36:50.129Z,23.06
2022-10-23T14:39:19.517Z,23.03
2022-10-23T14:41:47.857Z,22.90
2022-10-23T14:44:17.332Z,22.88
2022-10-23T14:46:45.735Z,23.01
2022-10-23T14:49:14.266Z,22.97
2022-10-23T14:51:42.691Z,22.80
2022-10-23T14:54:11.020Z,22.89
2022-10-23T14:56:40.802Z,22.88
2022-10-23T14:59:10.673Z,22.85
2022-10-23T15:01:45.109Z,22.92
2022-10-23T15:04:14.965Z,22.94
2022-10-23T15:06:44.264Z,22.84
2022-10-23T15:09:14.098Z,22.84
2022-10-23T15:11:42.765Z,22.82
2022-10-23T15:14:11.655Z,22.85
2022-10-23T15:16:42.934Z,22.97
2022-10-23T15:19:17.089Z,22.95
2022-10-23T15:21:47.815Z,22.95
2022-10-23T15:24:17.225Z,22.89
2022-10-23T15:26:45.648Z,22.80
2022-10-23T15:29:15.013Z,22.79
2022-10-23T15:31:46.811Z,22.80
2022-10-23T15:34:21.267Z,22.77
2022-10-23T15:36:49.953Z,22.75
2022-10-23T15:39:21.828Z,22.72
2022-10-23T15:41:52.499Z,22.70
2022-10-23T15:44:23.918Z,22.73
2022-10-23T15:46:52.387Z,22.75
2022-10-23T15:49:20.781Z,22.71
2022-10-23T15:51:49.221Z,22.67
2022-10-23T15:54:19.569Z,22.70
2022-10-23T15:56:51.257Z,22.71
2022-10-23T15:59:22.344Z,22.65
2022-10-23T16:01:51.195Z,22.53
2022-10-23T16:04:20.036Z,22.49
2022-10-23T16:06:48.907Z,22.47
2022-10-23T16:09:17.578Z,22.39
2022-10-23T16:11:46.057Z,22.46
2022-10-23T16:14:16.567Z,22.55
2022-10-23T16:16:45.196Z,22.57
2022-10-23T16:19:13.756Z,22.52
2022-10-23T16:21:42.407Z,22.43
2022-10-23T16:24:11.220Z,22.41
2022-10-23T16:26:39.777Z,22.47
2022-10-23T16:29:09.634Z,22.48
2022-10-23T16:31:37.986Z,22.44
2022-10-23T16:34:06.809Z,22.42
2022-10-23T16:36:35.389Z,22.47
2022-10-23T16:39:04.336Z,22.42
2022-10-23T16:41:32.747Z,22.35
2022-10-23T16:44:01.580Z,22.38
2022-10-23T16:46:31.684Z,22.29
2022-10-23T16:49:00.019Z,22.28
2022-10-23T16:51:30.272Z,22.24
2022-10-23T16:53:59.352Z,22.21
2022-10-23T16:56:29.286Z,22.19
2022-10-23T17:01:30.879Z,22.20
2022-10-23T17:03:59.739Z,22.21
2022-10-23T17:06:31.075Z,22.19
2022-10-23T17:09:00.918Z,22.18
2022-10-23T17:11:34.766Z,22.17
2022-10-23T17:14:11.245Z,22.11
2022-10-23T17:16:44.560Z,22.15
2022-10-23T17:19:20.761Z,22.09
2022-10-23T17:21:50.288Z,22.12
2022-10-23T17:24:19.242Z,22.14
2022-10-23T17:26:48.476Z,22.00
2022-10-23T17:29:17.005Z,21.98
2022-10-23T17:31:48.305Z,22.09
2022-10-23T17:34:20.212Z,22.05
2022-10-23T17:36:52.936Z,22.10
2022-10-23T17:39:24.627Z,21.85
2022-10-23T17:41:53.360Z,21.67
2022-10-23T17:44:21.957Z,21.74
2022-10-23T17:46:54.407Z,21.80
2022-10-23T17:49:24.092Z,21.84
2022-10-23T17:51:58.585Z,21.78
2022-10-23T17:54:27.480Z,21.89
2022-10-23T17:56:56.064Z,21.88
2022-10-23T17:59:24.743Z,21.99
2022-10-23T18:01:53.400Z,21.89
2022-10-23T18:04:22.065Z,21.79
2022-10-23T18:06:53.233Z,21.75
2022-10-23T18:09:23.741Z,21.67
2022-10-23T18:11:53.553Z,21.81
2022-10-23T18:14:25.132Z,21.83
2022-10-23T18:16:55.854Z,21.58
2022-10-23T18:19:24.369Z,21.65
2022-10-23T18:21:53.796Z,21.64
2022-10-23T18:24:22.461Z,21.68
2022-10-23T18:26:50.864Z,21.59
2022-10-23T18:29:21.203Z,21.65
2022-10-23T18:31:49.754Z,21.60
2022-10-23T18:34:23.901Z,21.67
2022-10-23T18:36:54.084Z,21.63
2022-10-23T18:39:25.439Z,21.57
2022-10-23T18:41:57.069Z,21.64
2022-10-23T18:44:28.889Z,21.63
2022-10-23T18:46:59.227Z,21.65
2022-10-23T18:49:28.295Z,21.68
2022-10-23T18:51:58.197Z,21.69
2022-10-23T18:54:26.571Z,21.61
2022-10-23T18:56:55.151Z,21.77
2022-10-23T18:59:23.583Z,21.69
2022-10-23T19:01:52.197Z,21.68
2022-10-23T19:04:20.720Z,21.72
2022-10-23T19:06:50.106Z,21.81
2022-10-23T19:09:18.557Z,21.75
2022-10-23T19:11:46.959Z,21.59
2022-10-23T19:14:15.450Z,20.93
2022-10-23T19:17:08.162Z,21.70
2022-10-23T19:19:51.254Z,21.59
2022-10-23T19:22:19.838Z,21.89
2022-10-23T19:24:58.590Z,21.93
2022-10-23T19:27:27.107Z,21.62
2022-10-23T19:29:56.323Z,21.54
2022-10-23T19:32:24.737Z,21.32
2022-10-23T19:34:54.414Z,21.19
2022-10-23T19:37:26.619Z,21.18
2022-10-23T19:39:55.020Z,20.99
2022-10-23T19:42:23.492Z,20.89
2022-10-23T19:44:51.876Z,20.67
2022-10-23T19:47:20.257Z,20.59
2022-10-23T19:49:51.679Z,20.51
2022-10-23T19:52:22.177Z,20.38
2022-10-23T19:54:50.827Z,20.50
2022-10-23T19:57:22.519Z,20.49
2022-10-23T19:59:51.978Z,20.70
2022-10-23T20:02:20.801Z,20.63
2022-10-23T20:04:51.809Z,20.69
2022-10-23T20:07:20.152Z,20.53
2022-10-23T20:09:48.899Z,20.17
2022-10-23T20:12:17.329Z,20.22
2022-10-23T20:14:46.741Z,20.45
2022-10-23T20:17:15.164Z,20.60
2022-10-23T20:19:44.599Z,20.74
2022-10-23T20:22:12.908Z,20.50
2022-10-23T20:24:42.287Z,20.31
2022-10-23T20:27:13.646Z,20.40
2022-10-23T20:29:42.598Z,20.47
2022-10-23T20:32:11.725Z,20.41
2022-10-23T20:34:40.157Z,20.40
2022-10-23T20:37:08.604Z,20.36
2022-10-23T20:39:39.069Z,20.46
2022-10-23T20:42:08.539Z,20.62
2022-10-23T20:44:36.892Z,20.58
2022-10-23T20:47:05.997Z,20.41
2022-10-23T20:49:34.337Z,20.25
2022-10-23T20:52:04.384Z,20.26
2022-10-23T20:54:33.049Z,20.21
2022-10-23T20:57:01.648Z,20.16
2022-10-23T20:59:30.341Z,20.13
2022-10-23T21:01:58.731Z,20.12
2022-10-23T21:04:28.675Z,19.99
2022-10-23T21:07:10.057Z,19.87
2022-10-23T21:09:39.610Z,19.87
2022-10-23T21:12:08.998Z,19.88
2022-10-23T21:14:37.744Z,19.97
2022-10-23T21:17:06.224Z,19.92
2022-10-23T21:19:35.787Z,20.14
2022-10-23T21:22:04.172Z,20.00
2022-10-23T21:24:32.636Z,20.02
2022-10-23T21:27:01.046Z,20.07
2022-10-23T21:29:29.491Z,19.99
2022-10-23T21:32:01.398Z,19.99
2022-10-23T21:34:30.294Z,19.94
2022-10-23T21:37:14.993Z,19.92
2022-10-23T21:39:44.165Z,19.81
2022-10-23T21:42:13.951Z,19.82
2022-10-23T21:44:42.368Z,19.78
2022-10-23T21:47:10.945Z,19.82
2022-10-23T21:49:39.316Z,19.87
2022-10-23T21:52:07.807Z,20.02
2022-10-23T21:54:36.295Z,20.07
2022-10-23T21:57:04.725Z,20.10
2022-10-23T21:59:36.101Z,19.99
2022-10-23T22:02:04.991Z,20.13
2022-10-23T22:04:33.474Z,20.13
2022-10-23T22:07:05.317Z,20.00
2022-10-23T22:09:34.445Z,19.92
2022-10-23T22:12:02.997Z,19.96
2022-10-23T22:14:31.425Z,19.99
2022-10-23T22:16:59.850Z,20.03
2022-10-23T22:19:28.402Z,20.13
2022-10-23T22:21:58.021Z,20.20
2022-10-23T22:24:26.764Z,20.28
2022-10-23T22:26:56.336Z,20.40
2022-10-23T22:29:29.256Z,20.41
2022-10-23T22:31:58.265Z,20.41
2022-10-23T22:37:18.224Z,20.27
2022-10-23T22:39:50.152Z,20.36
2022-10-23T22:42:19.956Z,20.31
2022-10-23T22:44:48.456Z,20.32
2022-10-23T22:47:17.079Z,20.39
2022-10-23T22:49:45.518Z,20.42
2022-10-23T22:52:13.881Z,20.41
2022-10-23T22:54:42.249Z,20.39
2022-10-23T22:57:10.669Z,20.35
2022-10-23T22:59:39.032Z,20.29
2022-10-23T23:02:08.308Z,20.33
2022-10-23T23:04:38.386Z,20.26
2022-10-23T23:07:10.639Z,20.18
2022-10-23T23:09:43.788Z,20.12
2022-10-23T23:12:13.610Z,19.94
2022-10-23T23:14:42.947Z,19.93
2022-10-23T23:17:11.727Z,19.88
2022-10-23T23:19:40.187Z,19.97
2022-10-23T23:22:08.638Z,19.98
2022-10-23T23:24:36.997Z,19.96
2022-10-23T23:27:05.421Z,19.94
2022-10-23T23:29:33.858Z,19.87
2022-10-23T23:32:02.270Z,19.82
2022-10-23T23:34:30.639Z,19.90
2022-10-23T23:36:59.029Z,19.89
2022-10-23T23:39:28.528Z,19.79
2022-10-23T23:41:57.132Z,19.84
2022-10-23T23:44:25.595Z,19.78
2022-10-23T23:46:54.049Z,19.72
2022-10-23T23:49:22.528Z,19.85
2022-10-23T23:51:52.556Z,19.88
2022-10-23T23:54:20.985Z,19.80
2022-10-23T23:56:49.281Z,19.82
2022-10-23T23:59:17.680Z,19.82
